sensor_id;sensor_type;location;lat;lon;timestamp;pressure;altitude;pressure_sealevel;temperature;humidity
6680;BME280;3376;42.664;23.346;2023-08-06T21:57:27;93976.84;;;19.37;100.00
6680;BME280;3376;42.664;23.346;2023-08-06T21:59:54;93976.78;;;19.70;100.00
6680;BME280;3376;42.664;23.346;2023-08-06T22:02:20;93967.03;;;19.92;100.00
6680;BME280;3376;42.664;23.346;2023-08-06T22:04:47;93986.06;;;20.21;96.76
6680;BME280;3376;42.664;23.346;2023-08-06T22:07:14;93989.22;;;20.45;96.52
6680;BME280;3376;42.664;23.346;2023-08-06T22:09:40;93986.91;;;20.53;93.39
6680;BME280;3376;42.664;23.346;2023-08-06T22:12:07;93986.25;;;20.68;91.41
6680;BME280;3376;42.664;23.346;2023-08-06T22:14:36;93994.44;;;20.71;92.09
6680;BME280;3376;42.664;23.346;2023-08-06T22:17:03;93984.34;;;20.58;88.63
6680;BME280;3376;42.664;23.346;2023-08-06T22:19:29;94006.91;;;20.81;91.52
6680;BME280;3376;42.664;23.346;2023-08-06T22:21:56;94001.09;;;20.79;88.09
6680;BME280;3376;42.664;23.346;2023-08-06T22:24:23;93978.56;;;20.61;89.18
6680;BME280;3376;42.664;23.346;2023-08-06T22:26:50;94001.28;;;20.72;93.66
6680;BME280;3376;42.664;23.346;2023-08-06T22:29:17;94000.22;;;20.68;89.93
6680;BME280;3376;42.664;23.346;2023-08-06T22:31:45;94002.47;;;20.55;86.72
6680;BME280;3376;42.664;23.346;2023-08-06T22:34:11;94000.00;;;20.48;88.71
6680;BME280;3376;42.664;23.346;2023-08-06T22:36:38;94000.25;;;20.47;89.71
6680;BME280;3376;42.664;23.346;2023-08-06T22:39:05;94006.16;;;20.59;91.04
6680;BME280;3376;42.664;23.346;2023-08-06T22:41:32;94015.97;;;20.63;91.79
6680;BME280;3376;42.664;23.346;2023-08-06T22:43:58;94012.56;;;20.68;90.68
6680;BME280;3376;42.664;23.346;2023-08-06T22:46:25;94016.00;;;20.68;87.39
6680;BME280;3376;42.664;23.346;2023-08-06T22:48:54;94012.63;;;20.73;88.42
6680;BME280;3376;42.664;23.346;2023-08-06T22:51:20;94008.97;;;20.74;89.26
6680;BME280;3376;42.664;23.346;2023-08-06T22:53:48;94021.88;;;20.75;89.02
6680;BME280;3376;42.664;23.346;2023-08-06T22:56:15;94014.09;;;20.64;89.82
6680;BME280;3376;42.664;23.346;2023-08-06T22:58:41;94017.78;;;20.63;85.70
6680;BME280;3376;42.664;23.346;2023-08-06T23:01:08;94017.28;;;20.66;87.58
6680;BME280;3376;42.664;23.346;2023-08-06T23:03:35;94016.69;;;20.59;86.52
6680;BME280;3376;42.664;23.346;2023-08-06T23:06:03;94018.63;;;20.42;86.46
6680;BME280;3376;42.664;23.346;2023-08-06T23:08:30;94023.94;;;20.47;89.88
6680;BME280;3376;42.664;23.346;2023-08-06T23:10:56;94034.03;;;20.55;88.96
6680;BME280;3376;42.664;23.346;2023-08-06T23:13:26;94017.19;;;20.56;88.65
6680;BME280;3376;42.664;23.346;2023-08-06T23:15:52;94017.16;;;20.51;86.67
6680;BME280;3376;42.664;23.346;2023-08-06T23:18:19;93994.94;;;20.42;88.36
6680;BME280;3376;42.664;23.346;2023-08-06T23:20:46;94018.81;;;20.57;88.83
6680;BME280;3376;42.664;23.346;2023-08-06T23:23:14;94002.03;;;20.36;89.13
6680;BME280;3376;42.664;23.346;2023-08-06T23:25:41;94013.59;;;20.62;90.49
6680;BME280;3376;42.664;23.346;2023-08-06T23:28:07;94018.31;;;20.60;87.91
6680;BME280;3376;42.664;23.346;2023-08-06T23:30:34;94024.59;;;20.59;89.21
6680;BME280;3376;42.664;23.346;2023-08-06T23:33:01;94022.50;;;20.61;87.32
6680;BME280;3376;42.664;23.346;2023-08-06T23:35:28;94021.06;;;20.48;85.70
6680;BME280;3376;42.664;23.346;2023-08-06T23:37:54;94022.91;;;20.48;86.25
6680;BME280;3376;42.664;23.346;2023-08-06T23:40:22;94025.25;;;20.44;86.80
6680;BME280;3376;42.664;23.346;2023-08-06T23:42:49;94015.94;;;20.37;86.40
6680;BME280;3376;42.664;23.346;2023-08-06T23:45:16;94022.91;;;20.48;86.48
6680;BME280;3376;42.664;23.346;2023-08-06T23:47:42;94000.97;;;20.37;86.28
6680;BME280;3376;42.664;23.346;2023-08-06T23:50:09;94016.16;;;20.57;86.47
6680;BME280;3376;42.664;23.346;2023-08-06T23:52:36;94023.56;;;20.60;85.07
6680;BME280;3376;42.664;23.346;2023-08-06T23:55:03;94012.50;;;20.58;86.28
6680;BME280;3376;42.664;23.346;2023-08-06T23:57:31;94021.50;;;20.62;85.62
6680;BME280;3376;42.664;23.346;2023-08-06T23:59:59;94013.25;;;20.53;85.10
